sensor_id;sensor_type;location;lat;lon;timestamp;temperature;humidity
41469;DHT22;27206;47.032;15.484;2022-11-11T00:01:03;3.30;5.10
41469;DHT22;27206;47.032;15.484;2022-11-11T00:03:28;3.40;5.70
41469;DHT22;27206;47.032;15.484;2022-11-11T00:05:58;3.40;5.20
41469;DHT22;27206;47.032;15.484;2022-11-11T00:08:24;3.30;1.00
41469;DHT22;27206;47.032;15.484;2022-11-11T00:10:49;3.30;1.00
41469;DHT22;27206;47.032;15.484;2022-11-11T00:13:15;3.30;1.00
41469;DHT22;27206;47.032;15.484;2022-11-11T00:15:40;3.20;1.00
41469;DHT22;27206;47.032;15.484;2022-11-11T00:18:08;3.30;1.00
41469;DHT22;27206;47.032;15.484;2022-11-11T00:20:52;3.30;1.00
41469;DHT22;27206;47.032;15.484;2022-11-11T00:23:36;3.30;1.00
41469;DHT22;27206;47.032;15.484;2022-11-11T00:26:20;3.20;1.00
41469;DHT22;27206;47.032;15.484;2022-11-11T00:28:46;3.30;1.00
41469;DHT22;27206;47.032;15.484;2022-11-11T00:31:12;3.30;1.00
41469;DHT22;27206;47.032;15.484;2022-11-11T00:33:38;3.20;1.00
41469;DHT22;27206;47.032;15.484;2022-11-11T00:36:04;3.20;1.00
41469;DHT22;27206;47.032;15.484;2022-11-11T00:38:30;3.20;1.00
41469;DHT22;27206;47.032;15.484;2022-11-11T00:41:11;3.10;1.00
41469;DHT22;27206;47.032;15.484;2022-11-11T00:43:37;3.10;1.00
41469;DHT22;27206;47.032;15.484;2022-11-11T00:46:03;3.10;1.00
41469;DHT22;27206;47.032;15.484;2022-11-11T00:48:47;3.00;1.00
41469;DHT22;27206;47.032;15.484;2022-11-11T00:51:32;3.00;1.00
41469;DHT22;27206;47.032;15.484;2022-11-11T00:53:57;2.90;1.00
41469;DHT22;27206;47.032;15.484;2022-11-11T00:56:23;2.90;1.00
41469;DHT22;27206;47.032;15.484;2022-11-11T00:58:48;2.80;1.00
41469;DHT22;27206;47.032;15.484;2022-11-11T01:01:14;2.80;1.00
41469;DHT22;27206;47.032;15.484;2022-11-11T01:03:40;2.80;1.00
41469;DHT22;27206;47.032;15.484;2022-11-11T01:06:05;2.90;1.00
41469;DHT22;27206;47.032;15.484;2022-11-11T01:08:31;2.80;1.00
41469;DHT22;27206;47.032;15.484;2022-11-11T01:10:57;2.80;1.00
41469;DHT22;27206;47.032;15.484;2022-11-11T01:13:24;2.80;1.00
41469;DHT22;27206;47.032;15.484;2022-11-11T01:15:50;2.80;1.00
41469;DHT22;27206;47.032;15.484;2022-11-11T01:18:18;2.80;1.00
41469;DHT22;27206;47.032;15.484;2022-11-11T01:20:44;2.80;1.00
41469;DHT22;27206;47.032;15.484;2022-11-11T01:23:11;2.80;1.00
41469;DHT22;27206;47.032;15.484;2022-11-11T01:25:37;2.80;1.00
41469;DHT22;27206;47.032;15.484;2022-11-11T01:28:03;2.80;1.00
41469;DHT22;27206;47.032;15.484;2022-11-11T01:30:33;2.80;1.00
41469;DHT22;27206;47.032;15.484;2022-11-11T01:32:59;2.80;1.00
41469;DHT22;27206;47.032;15.484;2022-11-11T01:35:25;2.80;1.00
41469;DHT22;27206;47.032;15.484;2022-11-11T01:37:50;2.80;1.00
41469;DHT22;27206;47.032;15.484;2022-11-11T01:40:16;2.60;1.00
41469;DHT22;27206;47.032;15.484;2022-11-11T01:42:47;2.70;1.00
41469;DHT22;27206;47.032;15.484;2022-11-11T01:47:57;2.80;1.00
41469;DHT22;27206;47.032;15.484;2022-11-11T01:50:41;2.70;1.00
41469;DHT22;27206;47.032;15.484;2022-11-11T01:53:07;2.60;1.00
41469;DHT22;27206;47.032;15.484;2022-11-11T01:55:32;2.60;1.00
41469;DHT22;27206;47.032;15.484;2022-11-11T01:58:08;2.50;1.00
41469;DHT22;27206;47.032;15.484;2022-11-11T02:00:36;2.40;1.00
41469;DHT22;27206;47.032;15.484;2022-11-11T02:03:03;2.40;1.00
41469;DHT22;27206;47.032;15.484;2022-11-11T02:05:29;2.40;1.00
41469;DHT22;27206;47.032;15.484;2022-11-11T02:10:36;2.30;1.00
41469;DHT22;27206;47.032;15.484;2022-11-11T02:13:02;2.40;1.00
41469;DHT22;27206;47.032;15.484;2022-11-11T02:15:47;2.40;1.00
41469;DHT22;27206;47.032;15.484;2022-11-11T02:18:13;2.30;1.00
41469;DHT22;27206;47.032;15.484;2022-11-11T02:20:42;2.30;1.00
41469;DHT22;27206;47.032;15.484;2022-11-11T02:23:25;2.30;1.00
41469;DHT22;27206;47.032;15.484;2022-11-11T02:25:52;2.30;1.00
41469;DHT22;27206;47.032;15.484;2022-11-11T02:28:18;2.40;1.00
41469;DHT22;27206;47.032;15.484;2022-11-11T02:30:44;2.40;1.00
41469;DHT22;27206;47.032;15.484;2022-11-11T02:33:10;2.40;1.00
41469;DHT22;27206;47.032;15.484;2022-11-11T02:35:36;2.40;1.00
41469;DHT22;27206;47.032;15.484;2022-11-11T02:38:03;2.40;1.00
41469;DHT22;27206;47.032;15.484;2022-11-11T02:42:58;2.30;1.00
41469;DHT22;27206;47.032;15.484;2022-11-11T02:45:23;2.20;1.00
41469;DHT22;27206;47.032;15.484;2022-11-11T02:47:49;2.20;1.00
41469;DHT22;27206;47.032;15.484;2022-11-11T02:50:15;2.20;1.00
41469;DHT22;27206;47.032;15.484;2022-11-11T02:52:40;2.20;1.00
41469;DHT22;27206;47.032;15.484;2022-11-11T02:55:06;2.20;1.00
41469;DHT22;27206;47.032;15.484;2022-11-11T02:57:32;2.20;1.00
41469;DHT22;27206;47.032;15.484;2022-11-11T02:59:58;2.30;1.00
41469;DHT22;27206;47.032;15.484;2022-11-11T03:02:24;2.30;1.00
41469;DHT22;27206;47.032;15.484;2022-11-11T03:04:53;2.20;1.00
41469;DHT22;27206;47.032;15.484;2022-11-11T03:07:19;2.30;1.00
41469;DHT22;27206;47.032;15.484;2022-11-11T03:09:44;2.30;1.00
41469;DHT22;27206;47.032;15.484;2022-11-11T03:12:10;2.30;1.00
41469;DHT22;27206;47.032;15.484;2022-11-11T03:14:35;2.30;1.00
41469;DHT22;27206;47.032;15.484;2022-11-11T03:17:01;2.30;1.00
41469;DHT22;27206;47.032;15.484;2022-11-11T03:19:45;2.20;1.00
41469;DHT22;27206;47.032;15.484;2022-11-11T03:22:11;2.30;1.00
41469;DHT22;27206;47.032;15.484;2022-11-11T03:24:36;2.20;1.00
41469;DHT22;27206;47.032;15.484;2022-11-11T03:27:21;2.20;1.00
41469;DHT22;27206;47.032;15.484;2022-11-11T03:29:46;2.10;1.00
41469;DHT22;27206;47.032;15.484;2022-11-11T03:32:12;2.10;1.00
41469;DHT22;27206;47.032;15.484;2022-11-11T03:34:37;2.10;1.00
41469;DHT22;27206;47.032;15.484;2022-11-11T03:37:07;2.10;1.00
41469;DHT22;27206;47.032;15.484;2022-11-11T03:39:51;2.00;1.00
41469;DHT22;27206;47.032;15.484;2022-11-11T03:42:16;2.00;1.00
41469;DHT22;27206;47.032;15.484;2022-11-11T03:44:42;2.00;1.00
41469;DHT22;27206;47.032;15.484;2022-11-11T03:47:07;1.90;1.00
41469;DHT22;27206;47.032;15.484;2022-11-11T03:49:33;1.90;1.00
41469;DHT22;27206;47.032;15.484;2022-11-11T03:52:00;1.90;1.00
41469;DHT22;27206;47.032;15.484;2022-11-11T03:54:25;2.00;1.00
41469;DHT22;27206;47.032;15.484;2022-11-11T03:56:51;1.90;1.00
41469;DHT22;27206;47.032;15.484;2022-11-11T03:59:16;1.80;1.00
41469;DHT22;27206;47.032;15.484;2022-11-11T04:01:42;1.90;1.00
41469;DHT22;27206;47.032;15.484;2022-11-11T04:04:26;1.90;1.00
41469;DHT22;27206;47.032;15.484;2022-11-11T04:07:10;1.90;1.00
41469;DHT22;27206;47.032;15.484;2022-11-11T04:09:54;1.80;1.00
41469;DHT22;27206;47.032;15.484;2022-11-11T04:12:39;1.80;1.00
41469;DHT22;27206;47.032;15.484;2022-11-11T04:15:24;1.90;1.00
41469;DHT22;27206;47.032;15.484;2022-11-11T04:18:08;1.90;1.00
41469;DHT22;27206;47.032;15.484;2022-11-11T04:20:34;1.90;1.00
41469;DHT22;27206;47.032;15.484;2022-11-11T04:23:18;1.90;1.00
41469;DHT22;27206;47.032;15.484;2022-11-11T04:25:43;1.90;1.00
41469;DHT22;27206;47.032;15.484;2022-11-11T04:28:17;1.90;1.00
41469;DHT22;27206;47.032;15.484;2022-11-11T04:31:01;1.90;1.00
41469;DHT22;27206;47.032;15.484;2022-11-11T04:33:26;1.90;1.00
41469;DHT22;27206;47.032;15.484;2022-11-11T04:35:52;1.80;1.00
41469;DHT22;27206;47.032;15.484;2022-11-11T04:38:17;1.80;1.00
41469;DHT22;27206;47.032;15.484;2022-11-11T04:41:01;1.90;1.00
41469;DHT22;27206;47.032;15.484;2022-11-11T04:43:30;1.90;1.00
41469;DHT22;27206;47.032;15.484;2022-11-11T04:45:59;1.80;1.00
41469;DHT22;27206;47.032;15.484;2022-11-11T04:48:25;1.70;1.00
41469;DHT22;27206;47.032;15.484;2022-11-11T04:50:51;1.80;1.00
41469;DHT22;27206;47.032;15.484;2022-11-11T04:53:17;1.80;1.00
41469;DHT22;27206;47.032;15.484;2022-11-11T04:55:43;1.80;1.00
41469;DHT22;27206;47.032;15.484;2022-11-11T04:58:31;1.80;1.00
41469;DHT22;27206;47.032;15.484;2022-11-11T05:00:57;1.70;1.00
41469;DHT22;27206;47.032;15.484;2022-11-11T05:03:23;1.80;1.00
41469;DHT22;27206;47.032;15.484;2022-11-11T05:05:49;1.80;1.00
41469;DHT22;27206;47.032;15.484;2022-11-11T05:08:34;1.80;1.00
41469;DHT22;27206;47.032;15.484;2022-11-11T05:11:19;1.70;1.00
41469;DHT22;27206;47.032;15.484;2022-11-11T05:13:45;1.70;1.00
41469;DHT22;27206;47.032;15.484;2022-11-11T05:16:29;1.70;1.00
41469;DHT22;27206;47.032;15.484;2022-11-11T05:19:15;1.70;1.00
41469;DHT22;27206;47.032;15.484;2022-11-11T05:22:21;1.80;1.00
41469;DHT22;27206;47.032;15.484;2022-11-11T05:24:45;1.80;1.00
41469;DHT22;27206;47.032;15.484;2022-11-11T05:27:29;1.70;1.00
41469;DHT22;27206;47.032;15.484;2022-11-11T05:29:54;1.70;1.00
41469;DHT22;27206;47.032;15.484;2022-11-11T05:32:20;1.70;1.00
41469;DHT22;27206;47.032;15.484;2022-11-11T05:34:46;1.70;1.00
41469;DHT22;27206;47.032;15.484;2022-11-11T05:37:12;1.80;1.00
41469;DHT22;27206;47.032;15.484;2022-11-11T05:39:38;1.90;1.00
41469;DHT22;27206;47.032;15.484;2022-11-11T05:42:05;1.80;1.00
41469;DHT22;27206;47.032;15.484;2022-11-11T05:44:30;1.90;1.00
41469;DHT22;27206;47.032;15.484;2022-11-11T05:46:56;1.80;1.00
41469;DHT22;27206;47.032;15.484;2022-11-11T05:49:22;1.80;1.00
41469;DHT22;27206;47.032;15.484;2022-11-11T05:51:49;1.80;1.00
41469;DHT22;27206;47.032;15.484;2022-11-11T05:54:15;1.80;1.00
41469;DHT22;27206;47.032;15.484;2022-11-11T05:56:41;1.80;1.00
41469;DHT22;27206;47.032;15.484;2022-11-11T05:59:06;1.90;1.00
41469;DHT22;27206;47.032;15.484;2022-11-11T06:01:32;2.00;1.00
41469;DHT22;27206;47.032;15.484;2022-11-11T06:03:58;2.00;1.00
41469;DHT22;27206;47.032;15.484;2022-11-11T06:06:23;2.10;1.00
41469;DHT22;27206;47.032;15.484;2022-11-11T06:08:49;2.10;1.00
41469;DHT22;27206;47.032;15.484;2022-11-11T06:11:14;2.00;1.00
41469;DHT22;27206;47.032;15.484;2022-11-11T06:13:40;2.00;1.00
41469;DHT22;27206;47.032;15.484;2022-11-11T06:16:06;2.00;1.00
41469;DHT22;27206;47.032;15.484;2022-11-11T06:18:32;2.10;1.00
41469;DHT22;27206;47.032;15.484;2022-11-11T06:20:58;2.10;1.00
41469;DHT22;27206;47.032;15.484;2022-11-11T06:23:24;2.10;1.00
41469;DHT22;27206;47.032;15.484;2022-11-11T06:25:50;2.10;1.00
41469;DHT22;27206;47.032;15.484;2022-11-11T06:28:34;2.20;1.00
41469;DHT22;27206;47.032;15.484;2022-11-11T06:30:59;2.20;1.00
41469;DHT22;27206;47.032;15.484;2022-11-11T06:33:25;2.30;1.00
41469;DHT22;27206;47.032;15.484;2022-11-11T06:35:51;2.40;1.00
41469;DHT22;27206;47.032;15.484;2022-11-11T06:38:16;2.40;1.00
41469;DHT22;27206;47.032;15.484;2022-11-11T06:40:42;2.40;1.00
41469;DHT22;27206;47.032;15.484;2022-11-11T06:43:08;2.50;1.00
41469;DHT22;27206;47.032;15.484;2022-11-11T06:45:34;2.50;1.00
41469;DHT22;27206;47.032;15.484;2022-11-11T06:48:03;2.50;1.00
41469;DHT22;27206;47.032;15.484;2022-11-11T06:50:29;2.60;1.00
41469;DHT22;27206;47.032;15.484;2022-11-11T06:52:56;2.70;1.00
41469;DHT22;27206;47.032;15.484;2022-11-11T06:55:21;2.70;1.00
41469;DHT22;27206;47.032;15.484;2022-11-11T06:57:47;2.80;1.00
41469;DHT22;27206;47.032;15.484;2022-11-11T07:00:12;2.80;1.00
41469;DHT22;27206;47.032;15.484;2022-11-11T07:02:38;2.80;1.00
41469;DHT22;27206;47.032;15.484;2022-11-11T07:05:04;2.90;1.00
41469;DHT22;27206;47.032;15.484;2022-11-11T07:07:30;2.80;1.00
41469;DHT22;27206;47.032;15.484;2022-11-11T07:09:55;2.80;1.00
41469;DHT22;27206;47.032;15.484;2022-11-11T07:12:21;2.90;1.00
41469;DHT22;27206;47.032;15.484;2022-11-11T07:14:47;2.90;1.00
41469;DHT22;27206;47.032;15.484;2022-11-11T07:17:12;2.90;1.00
41469;DHT22;27206;47.032;15.484;2022-11-11T07:19:38;2.90;1.00
41469;DHT22;27206;47.032;15.484;2022-11-11T07:22:03;3.00;1.00
41469;DHT22;27206;47.032;15.484;2022-11-11T07:24:29;2.90;1.00
41469;DHT22;27206;47.032;15.484;2022-11-11T07:26:54;2.90;1.00
41469;DHT22;27206;47.032;15.484;2022-11-11T07:29:20;3.00;1.00
41469;DHT22;27206;47.032;15.484;2022-11-11T07:31:45;3.10;1.00
41469;DHT22;27206;47.032;15.484;2022-11-11T07:34:11;3.10;1.00
41469;DHT22;27206;47.032;15.484;2022-11-11T07:36:36;3.10;1.00
41469;DHT22;27206;47.032;15.484;2022-11-11T07:39:02;3.10;1.00
41469;DHT22;27206;47.032;15.484;2022-11-11T07:41:27;3.10;1.00
41469;DHT22;27206;47.032;15.484;2022-11-11T07:43:53;3.10;1.00
41469;DHT22;27206;47.032;15.484;2022-11-11T07:46:18;3.20;1.00
41469;DHT22;27206;47.032;15.484;2022-11-11T07:48:44;3.20;1.00
41469;DHT22;27206;47.032;15.484;2022-11-11T07:51:09;3.40;1.00
41469;DHT22;27206;47.032;15.484;2022-11-11T07:53:35;3.50;1.00
41469;DHT22;27206;47.032;15.484;2022-11-11T07:56:00;3.70;1.00
41469;DHT22;27206;47.032;15.484;2022-11-11T07:58:26;3.70;1.00
41469;DHT22;27206;47.032;15.484;2022-11-11T08:00:51;3.80;1.00
41469;DHT22;27206;47.032;15.484;2022-11-11T08:03:17;3.80;1.00
41469;DHT22;27206;47.032;15.484;2022-11-11T08:05:42;4.00;1.00
41469;DHT22;27206;47.032;15.484;2022-11-11T08:08:08;4.20;1.00
41469;DHT22;27206;47.032;15.484;2022-11-11T08:10:34;4.20;1.00
41469;DHT22;27206;47.032;15.484;2022-11-11T08:13:00;4.30;1.00
41469;DHT22;27206;47.032;15.484;2022-11-11T08:15:44;4.20;1.00
41469;DHT22;27206;47.032;15.484;2022-11-11T08:18:09;4.40;1.00
41469;DHT22;27206;47.032;15.484;2022-11-11T08:20:35;4.50;1.00
41469;DHT22;27206;47.032;15.484;2022-11-11T08:23:01;4.70;1.00
41469;DHT22;27206;47.032;15.484;2022-11-11T08:25:29;4.90;1.00
41469;DHT22;27206;47.032;15.484;2022-11-11T08:27:55;5.20;1.00
41469;DHT22;27206;47.032;15.484;2022-11-11T08:30:21;5.40;1.00
41469;DHT22;27206;47.032;15.484;2022-11-11T08:32:46;5.60;1.00
41469;DHT22;27206;47.032;15.484;2022-11-11T08:35:12;5.70;1.00
41469;DHT22;27206;47.032;15.484;2022-11-11T08:37:37;5.80;1.00
41469;DHT22;27206;47.032;15.484;2022-11-11T08:40:03;6.00;1.00
41469;DHT22;27206;47.032;15.484;2022-11-11T08:42:28;6.20;1.00
41469;DHT22;27206;47.032;15.484;2022-11-11T08:44:54;6.40;1.00
41469;DHT22;27206;47.032;15.484;2022-11-11T08:47:20;6.60;1.00
41469;DHT22;27206;47.032;15.484;2022-11-11T08:49:46;6.50;1.00
41469;DHT22;27206;47.032;15.484;2022-11-11T08:52:13;6.60;1.00
41469;DHT22;27206;47.032;15.484;2022-11-11T08:54:40;6.70;1.00
41469;DHT22;27206;47.032;15.484;2022-11-11T08:57:05;6.80;1.00
41469;DHT22;27206;47.032;15.484;2022-11-11T08:59:30;6.90;1.00
41469;DHT22;27206;47.032;15.484;2022-11-11T09:01:56;6.90;1.00
41469;DHT22;27206;47.032;15.484;2022-11-11T09:04:21;7.10;1.00
41469;DHT22;27206;47.032;15.484;2022-11-11T09:06:47;7.10;1.00
41469;DHT22;27206;47.032;15.484;2022-11-11T09:09:13;7.20;1.00
41469;DHT22;27206;47.032;15.484;2022-11-11T09:11:38;7.30;1.00
41469;DHT22;27206;47.032;15.484;2022-11-11T09:14:04;7.40;1.00
41469;DHT22;27206;47.032;15.484;2022-11-11T09:16:29;7.70;1.00
41469;DHT22;27206;47.032;15.484;2022-11-11T09:18:55;7.80;1.00
41469;DHT22;27206;47.032;15.484;2022-11-11T09:21:20;7.80;1.00
41469;DHT22;27206;47.032;15.484;2022-11-11T09:23:46;7.90;1.00
41469;DHT22;27206;47.032;15.484;2022-11-11T09:26:11;7.90;1.00
41469;DHT22;27206;47.032;15.484;2022-11-11T09:28:36;8.00;1.00
41469;DHT22;27206;47.032;15.484;2022-11-11T09:31:02;8.00;1.00
41469;DHT22;27206;47.032;15.484;2022-11-11T09:33:27;8.00;1.00
41469;DHT22;27206;47.032;15.484;2022-11-11T09:35:53;8.10;1.00
41469;DHT22;27206;47.032;15.484;2022-11-11T09:38:18;8.20;1.00
41469;DHT22;27206;47.032;15.484;2022-11-11T09:41:30;8.20;1.00
41469;DHT22;27206;47.032;15.484;2022-11-11T09:46:27;8.20;1.00
41469;DHT22;27206;47.032;15.484;2022-11-11T09:51:29;8.50;1.00
41469;DHT22;27206;47.032;15.484;2022-11-11T09:54:01;8.60;1.00
41469;DHT22;27206;47.032;15.484;2022-11-11T09:56:29;8.70;1.00
41469;DHT22;27206;47.032;15.484;2022-11-11T09:58:58;8.80;1.00
41469;DHT22;27206;47.032;15.484;2022-11-11T10:01:28;8.80;1.00
41469;DHT22;27206;47.032;15.484;2022-11-11T10:06:36;8.90;1.00
41469;DHT22;27206;47.032;15.484;2022-11-11T10:14:11;9.30;1.00
41469;DHT22;27206;47.032;15.484;2022-11-11T10:21:49;9.60;1.00
41469;DHT22;27206;47.032;15.484;2022-11-11T10:24:15;9.50;1.00
41469;DHT22;27206;47.032;15.484;2022-11-11T10:26:42;9.90;1.00
41469;DHT22;27206;47.032;15.484;2022-11-11T10:29:16;10.00;1.00
41469;DHT22;27206;47.032;15.484;2022-11-11T10:31:43;10.00;1.00
41469;DHT22;27206;47.032;15.484;2022-11-11T10:34:09;9.90;1.00
41469;DHT22;27206;47.032;15.484;2022-11-11T10:36:37;10.00;1.00
41469;DHT22;27206;47.032;15.484;2022-11-11T10:39:07;10.20;1.00
41469;DHT22;27206;47.032;15.484;2022-11-11T10:41:45;10.20;1.00
41469;DHT22;27206;47.032;15.484;2022-11-11T10:44:22;10.20;1.00
41469;DHT22;27206;47.032;15.484;2022-11-11T10:46:52;10.10;1.00
41469;DHT22;27206;47.032;15.484;2022-11-11T10:49:20;10.10;1.00
41469;DHT22;27206;47.032;15.484;2022-11-11T10:51:49;10.20;1.00
41469;DHT22;27206;47.032;15.484;2022-11-11T10:54:17;10.10;1.00
41469;DHT22;27206;47.032;15.484;2022-11-11T10:56:46;10.10;1.00
41469;DHT22;27206;47.032;15.484;2022-11-11T10:59:25;9.90;1.00
41469;DHT22;27206;47.032;15.484;2022-11-11T11:01:55;10.10;1.00
41469;DHT22;27206;47.032;15.484;2022-11-11T11:04:30;10.20;1.00
41469;DHT22;27206;47.032;15.484;2022-11-11T11:06:56;10.10;1.00
41469;DHT22;27206;47.032;15.484;2022-11-11T11:09:46;10.10;1.00
41469;DHT22;27206;47.032;15.484;2022-11-11T11:12:21;10.20;1.00
41469;DHT22;27206;47.032;15.484;2022-11-11T11:14:50;10.30;1.00
41469;DHT22;27206;47.032;15.484;2022-11-11T11:17:22;10.50;1.00
41469;DHT22;27206;47.032;15.484;2022-11-11T11:20:05;10.40;1.00
41469;DHT22;27206;47.032;15.484;2022-11-11T11:22:43;10.40;1.00
41469;DHT22;27206;47.032;15.484;2022-11-11T11:25:09;10.30;1.00
41469;DHT22;27206;47.032;15.484;2022-11-11T11:27:36;10.40;1.00
41469;DHT22;27206;47.032;15.484;2022-11-11T11:30:12;10.30;1.00
41469;DHT22;27206;47.032;15.484;2022-11-11T11:32:38;10.50;1.00
41469;DHT22;27206;47.032;15.484;2022-11-11T11:35:06;10.30;1.00
41469;DHT22;27206;47.032;15.484;2022-11-11T11:37:35;10.30;1.00
41469;DHT22;27206;47.032;15.484;2022-11-11T11:40:11;10.30;1.00
41469;DHT22;27206;47.032;15.484;2022-11-11T11:42:38;10.30;1.00
41469;DHT22;27206;47.032;15.484;2022-11-11T11:45:20;10.20;1.00
41469;DHT22;27206;47.032;15.484;2022-11-11T11:47:49;10.40;1.00
41469;DHT22;27206;47.032;15.484;2022-11-11T11:55:20;10.70;1.00
41469;DHT22;27206;47.032;15.484;2022-11-11T12:05:30;10.70;1.00
41469;DHT22;27206;47.032;15.484;2022-11-11T12:10:35;11.50;1.00
41469;DHT22;27206;47.032;15.484;2022-11-11T12:21:05;15.00;99.90
41469;DHT22;27206;47.032;15.484;2022-11-11T12:23:43;14.30;99.90
41469;DHT22;27206;47.032;15.484;2022-11-11T12:26:17;15.30;99.90
41469;DHT22;27206;47.032;15.484;2022-11-11T12:36:34;15.20;99.90
41469;DHT22;27206;47.032;15.484;2022-11-11T12:44:05;14.30;99.90
41469;DHT22;27206;47.032;15.484;2022-11-11T12:46:38;14.30;99.90
41469;DHT22;27206;47.032;15.484;2022-11-11T12:49:11;14.50;99.90
41469;DHT22;27206;47.032;15.484;2022-11-11T12:59:07;13.10;99.90
41469;DHT22;27206;47.032;15.484;2022-11-11T13:01:41;12.80;99.90
41469;DHT22;27206;47.032;15.484;2022-11-11T13:09:41;12.70;99.90
41469;DHT22;27206;47.032;15.484;2022-11-11T13:17:12;13.00;99.90
41469;DHT22;27206;47.032;15.484;2022-11-11T13:19:40;13.50;99.90
41469;DHT22;27206;47.032;15.484;2022-11-11T13:24:37;14.20;99.90
41469;DHT22;27206;47.032;15.484;2022-11-11T13:27:03;14.90;99.90
41469;DHT22;27206;47.032;15.484;2022-11-11T13:31:56;14.80;99.90
41469;DHT22;27206;47.032;15.484;2022-11-11T13:34:22;14.20;99.90
41469;DHT22;27206;47.032;15.484;2022-11-11T13:36:49;13.50;99.90
41469;DHT22;27206;47.032;15.484;2022-11-11T13:39:33;13.10;99.90
41469;DHT22;27206;47.032;15.484;2022-11-11T13:41:59;13.10;99.90
41469;DHT22;27206;47.032;15.484;2022-11-11T13:44:27;13.00;99.90
41469;DHT22;27206;47.032;15.484;2022-11-11T13:47:04;12.80;99.90
41469;DHT22;27206;47.032;15.484;2022-11-11T13:49:34;12.60;99.90
41469;DHT22;27206;47.032;15.484;2022-11-11T13:52:02;12.60;99.90
41469;DHT22;27206;47.032;15.484;2022-11-11T13:57:15;12.40;99.90
41469;DHT22;27206;47.032;15.484;2022-11-11T13:59:43;12.20;99.90
41469;DHT22;27206;47.032;15.484;2022-11-11T14:12:46;12.00;99.90
41469;DHT22;27206;47.032;15.484;2022-11-11T14:15:31;11.80;99.90
41469;DHT22;27206;47.032;15.484;2022-11-11T14:17:57;11.90;99.90
41469;DHT22;27206;47.032;15.484;2022-11-11T14:26:28;11.70;99.90
41469;DHT22;27206;47.032;15.484;2022-11-11T14:39:14;11.10;99.90
41469;DHT22;27206;47.032;15.484;2022-11-11T14:41:48;11.00;1.00
41469;DHT22;27206;47.032;15.484;2022-11-11T14:57:33;10.90;1.00
41469;DHT22;27206;47.032;15.484;2022-11-11T15:00:01;10.80;1.00
41469;DHT22;27206;47.032;15.484;2022-11-11T15:02:28;10.80;1.00
41469;DHT22;27206;47.032;15.484;2022-11-11T15:04:58;11.00;1.00
41469;DHT22;27206;47.032;15.484;2022-11-11T15:07:30;10.90;1.00
41469;DHT22;27206;47.032;15.484;2022-11-11T15:10:02;10.90;1.00
41469;DHT22;27206;47.032;15.484;2022-11-11T15:15:16;10.60;1.00
41469;DHT22;27206;47.032;15.484;2022-11-11T15:20:41;10.50;1.00
41469;DHT22;27206;47.032;15.484;2022-11-11T15:23:24;10.40;1.00
41469;DHT22;27206;47.032;15.484;2022-11-11T15:25:53;10.30;1.00
41469;DHT22;27206;47.032;15.484;2022-11-11T15:33:54;10.10;1.00
41469;DHT22;27206;47.032;15.484;2022-11-11T15:38:52;9.60;1.00
41469;DHT22;27206;47.032;15.484;2022-11-11T15:41:22;9.60;1.00
41469;DHT22;27206;47.032;15.484;2022-11-11T15:43:49;9.40;1.00
41469;DHT22;27206;47.032;15.484;2022-11-11T15:46:21;9.30;1.00
41469;DHT22;27206;47.032;15.484;2022-11-11T15:48:46;9.20;1.00
41469;DHT22;27206;47.032;15.484;2022-11-11T15:51:15;9.00;1.00
41469;DHT22;27206;47.032;15.484;2022-11-11T15:53:41;8.80;1.00
41469;DHT22;27206;47.032;15.484;2022-11-11T15:56:07;8.70;1.00
41469;DHT22;27206;47.032;15.484;2022-11-11T15:58:33;8.70;1.00
41469;DHT22;27206;47.032;15.484;2022-11-11T16:01:02;8.60;1.00
41469;DHT22;27206;47.032;15.484;2022-11-11T16:03:32;8.60;1.00
41469;DHT22;27206;47.032;15.484;2022-11-11T16:05:58;8.40;1.00
41469;DHT22;27206;47.032;15.484;2022-11-11T16:08:24;8.30;1.00
41469;DHT22;27206;47.032;15.484;2022-11-11T16:10:54;8.20;1.00
41469;DHT22;27206;47.032;15.484;2022-11-11T16:13:22;8.20;1.00
41469;DHT22;27206;47.032;15.484;2022-11-11T16:15:50;8.20;1.00
41469;DHT22;27206;47.032;15.484;2022-11-11T16:18:20;8.10;1.00
41469;DHT22;27206;47.032;15.484;2022-11-11T16:20:51;8.00;1.00
41469;DHT22;27206;47.032;15.484;2022-11-11T16:23:18;8.00;1.00
41469;DHT22;27206;47.032;15.484;2022-11-11T16:25:44;7.80;1.00
41469;DHT22;27206;47.032;15.484;2022-11-11T16:28:10;7.70;1.00
41469;DHT22;27206;47.032;15.484;2022-11-11T16:30:37;7.60;1.00
41469;DHT22;27206;47.032;15.484;2022-11-11T16:33:03;7.60;1.00
41469;DHT22;27206;47.032;15.484;2022-11-11T16:35:38;7.60;1.00
41469;DHT22;27206;47.032;15.484;2022-11-11T16:38:04;7.30;1.00
41469;DHT22;27206;47.032;15.484;2022-11-11T16:45:51;7.10;1.00
41469;DHT22;27206;47.032;15.484;2022-11-11T16:54:11;7.00;1.00
41469;DHT22;27206;47.032;15.484;2022-11-11T16:56:41;7.00;1.00
41469;DHT22;27206;47.032;15.484;2022-11-11T16:59:11;6.90;1.00
41469;DHT22;27206;47.032;15.484;2022-11-11T17:01:42;6.80;1.00
41469;DHT22;27206;47.032;15.484;2022-11-11T17:04:08;6.90;1.00
41469;DHT22;27206;47.032;15.484;2022-11-11T17:06:47;6.90;1.00
41469;DHT22;27206;47.032;15.484;2022-11-11T17:11:58;7.00;1.00
41469;DHT22;27206;47.032;15.484;2022-11-11T17:14:24;7.00;1.00
41469;DHT22;27206;47.032;15.484;2022-11-11T17:16:49;6.90;1.00
41469;DHT22;27206;47.032;15.484;2022-11-11T17:19:15;6.90;1.00
41469;DHT22;27206;47.032;15.484;2022-11-11T17:21:41;6.80;1.00
41469;DHT22;27206;47.032;15.484;2022-11-11T17:24:06;6.80;1.00
41469;DHT22;27206;47.032;15.484;2022-11-11T17:26:32;6.70;1.00
41469;DHT22;27206;47.032;15.484;2022-11-11T17:28:58;6.70;1.00
41469;DHT22;27206;47.032;15.484;2022-11-11T17:31:24;6.70;1.00
41469;DHT22;27206;47.032;15.484;2022-11-11T17:33:49;6.50;1.00
41469;DHT22;27206;47.032;15.484;2022-11-11T17:36:15;6.50;1.00
41469;DHT22;27206;47.032;15.484;2022-11-11T17:38:40;6.40;1.00
41469;DHT22;27206;47.032;15.484;2022-11-11T17:41:06;6.40;1.00
41469;DHT22;27206;47.032;15.484;2022-11-11T17:43:32;6.40;1.00
41469;DHT22;27206;47.032;15.484;2022-11-11T17:46:01;6.30;1.00
41469;DHT22;27206;47.032;15.484;2022-11-11T17:48:26;6.30;1.00
41469;DHT22;27206;47.032;15.484;2022-11-11T17:50:52;6.20;1.00
41469;DHT22;27206;47.032;15.484;2022-11-11T17:53:17;6.20;1.00
41469;DHT22;27206;47.032;15.484;2022-11-11T17:55:43;6.10;1.00
41469;DHT22;27206;47.032;15.484;2022-11-11T17:58:09;6.10;1.00
41469;DHT22;27206;47.032;15.484;2022-11-11T18:00:35;6.00;1.00
41469;DHT22;27206;47.032;15.484;2022-11-11T18:03:00;5.90;1.00
41469;DHT22;27206;47.032;15.484;2022-11-11T18:05:25;6.00;1.00
41469;DHT22;27206;47.032;15.484;2022-11-11T18:07:51;5.90;1.00
41469;DHT22;27206;47.032;15.484;2022-11-11T18:10:17;5.90;1.00
41469;DHT22;27206;47.032;15.484;2022-11-11T18:12:42;5.90;1.00
41469;DHT22;27206;47.032;15.484;2022-11-11T18:15:08;5.80;1.00
41469;DHT22;27206;47.032;15.484;2022-11-11T18:17:34;5.80;1.00
41469;DHT22;27206;47.032;15.484;2022-11-11T18:19:59;5.70;1.00
41469;DHT22;27206;47.032;15.484;2022-11-11T18:22:25;5.80;1.00
41469;DHT22;27206;47.032;15.484;2022-11-11T18:24:50;5.80;1.00
41469;DHT22;27206;47.032;15.484;2022-11-11T18:27:16;5.70;1.00